createdAt,value
2022-11-09T00:00:14.706Z,97843.78
2022-11-09T00:02:46.144Z,97844.31
2022-11-09T00:05:16.328Z,97845.91
2022-11-09T00:07:46.560Z,97836.66
2022-11-09T00:10:21.638Z,97846.97
2022-11-09T00:12:49.066Z,97846.13
2022-11-09T00:15:16.835Z,97839.44
2022-11-09T00:17:47.073Z,97836.09
2022-11-09T00:20:15.323Z,97836.59
2022-11-09T00:22:51.432Z,97832.31
2022-11-09T00:25:19.529Z,97835.88
2022-11-09T00:27:48.994Z,97830.84
2022-11-09T00:30:19.677Z,97832.09
2022-11-09T00:32:49.470Z,97830.09
2022-11-09T00:35:17.390Z,97827.41
2022-11-09T00:38:08.839Z,97828.09
2022-11-09T00:40:39.476Z,97829.78
2022-11-09T00:45:51.147Z,97824.94
2022-11-09T00:48:21.497Z,97817.59
2022-11-09T00:50:58.854Z,97813.19
2022-11-09T00:53:27.654Z,97819.06
2022-11-09T00:56:11.761Z,97820.72
2022-11-09T00:58:39.677Z,97813.34
2022-11-09T01:01:17.786Z,97813.97
2022-11-09T01:03:47.746Z,97816.03
2022-11-09T01:06:21.071Z,97814.78
2022-11-09T01:08:51.683Z,97809.19
2022-11-09T01:11:20.260Z,97813.31
2022-11-09T01:13:47.741Z,97801.16
2022-11-09T01:16:19.147Z,97813.81
2022-11-09T01:18:46.446Z,97814.31
2022-11-09T01:21:15.906Z,97801.41
2022-11-09T01:23:43.632Z,97805.47
2022-11-09T01:26:20.340Z,97808.84
2022-11-09T01:28:47.537Z,97805.25
2022-11-09T01:31:17.244Z,97803.16
2022-11-09T01:33:44.537Z,97808.19
2022-11-09T01:36:16.471Z,97807.44
2022-11-09T01:38:43.965Z,97800.63
2022-11-09T01:41:18.894Z,97803.16
2022-11-09T01:43:47.350Z,97801.84
2022-11-09T01:46:30.609Z,97799.13
2022-11-09T01:49:03.523Z,97797.22
2022-11-09T01:51:41.480Z,97807.50
2022-11-09T01:54:17.143Z,97802.25
2022-11-09T01:56:46.933Z,97802.25
2022-11-09T01:59:18.898Z,97796.56
2022-11-09T02:01:47.467Z,97792.97
2022-11-09T02:04:21.920Z,97794.16
2022-11-09T02:06:50.610Z,97796.88
2022-11-09T02:09:28.551Z,97793.94
2022-11-09T02:11:56.063Z,97803.47
2022-11-09T02:14:26.784Z,97798.66
2022-11-09T02:16:53.959Z,97804.13
2022-11-09T02:19:20.958Z,97795.94
2022-11-09T02:21:56.908Z,97806.56
2022-11-09T02:24:25.315Z,97802.19
2022-11-09T02:26:53.638Z,97802.75
2022-11-09T02:29:28.317Z,97799.44
2022-11-09T02:32:03.871Z,97802.06
2022-11-09T02:34:31.406Z,97807.44
2022-11-09T02:37:07.920Z,97806.34
2022-11-09T02:39:35.174Z,97803.63
2022-11-09T02:42:21.410Z,97811.97
2022-11-09T02:44:51.916Z,97810.19
2022-11-09T02:47:18.945Z,97817.00
2022-11-09T02:49:45.966Z,97802.09
2022-11-09T02:52:12.994Z,97808.06
2022-11-09T02:54:39.993Z,97802.09
2022-11-09T02:57:06.977Z,97799.94
2022-11-09T02:59:34.147Z,97809.50
2022-11-09T03:02:01.241Z,97810.44
2022-11-09T03:04:28.265Z,97808.78
2022-11-09T03:06:55.365Z,97809.00
2022-11-09T03:09:22.539Z,97811.41
2022-11-09T03:11:58.394Z,97813.19
2022-11-09T03:14:53.903Z,97815.69
2022-11-09T03:17:20.921Z,97818.22
2022-11-09T03:19:48.080Z,97820.50
2022-11-09T03:22:15.709Z,97816.56
2022-11-09T03:24:42.726Z,97818.22
2022-11-09T03:27:23.780Z,97821.22
2022-11-09T03:29:50.815Z,97825.03
2022-11-09T03:32:29.944Z,97822.66
2022-11-09T03:34:57.205Z,97820.94
2022-11-09T03:37:24.467Z,97827.66
2022-11-09T03:39:51.479Z,97836.47
2022-11-09T03:42:18.474Z,97827.91
2022-11-09T03:44:45.559Z,97835.56
2022-11-09T03:47:12.965Z,97827.66
2022-11-09T03:49:42.287Z,97827.91
2022-11-09T03:52:20.697Z,97833.97
2022-11-09T03:55:15.650Z,97834.59
2022-11-09T03:57:46.643Z,97830.03
2022-11-09T04:00:18.924Z,97821.69
2022-11-09T04:02:46.551Z,97821.06
2022-11-09T04:05:17.153Z,97823.69
2022-11-09T04:07:52.473Z,97832.94
2022-11-09T04:10:21.549Z,97831.97
2022-11-09T04:12:49.065Z,97829.34
2022-11-09T04:15:16.543Z,97831.22
2022-11-09T04:17:45.149Z,97831.97
2022-11-09T04:20:12.828Z,97831.00
2022-11-09T04:22:42.375Z,97830.78
2022-11-09T04:25:25.203Z,97836.03
2022-11-09T04:27:59.739Z,97828.16
2022-11-09T04:33:18.636Z,97829.13
2022-11-09T04:35:46.099Z,97824.34
2022-11-09T04:38:14.651Z,97824.22
2022-11-09T04:40:41.889Z,97828.63
2022-11-09T04:43:12.709Z,97823.38
2022-11-09T04:45:39.790Z,97830.56
2022-11-09T04:48:08.319Z,97831.38
2022-11-09T04:50:54.082Z,97838.53
2022-11-09T04:53:21.687Z,97829.13
2022-11-09T04:55:52.130Z,97832.22
2022-11-09T04:58:27.149Z,97841.06
2022-11-09T05:01:01.874Z,97839.97
2022-11-09T05:03:32.045Z,97843.31
2022-11-09T05:05:59.223Z,97847.38
2022-11-09T05:08:26.578Z,97843.31
2022-11-09T05:14:13.464Z,97854.66
2022-11-09T05:19:33.530Z,97855.19
2022-11-09T05:22:20.761Z,97859.56
2022-11-09T05:24:52.117Z,97859.91
2022-11-09T05:27:22.425Z,97864.22
2022-11-09T05:29:53.388Z,97863.28
2022-11-09T05:32:20.466Z,97866.63
2022-11-09T05:34:52.842Z,97870.81
2022-11-09T05:37:22.402Z,97869.97
2022-11-09T05:39:49.505Z,97871.19
2022-11-09T05:42:16.650Z,97870.84
2022-11-09T05:44:43.818Z,97876.56
2022-11-09T05:47:10.986Z,97875.50
2022-11-09T05:49:38.296Z,97876.25
2022-11-09T05:52:05.620Z,97873.63
2022-11-09T05:54:47.452Z,97880.31
2022-11-09T05:57:14.850Z,97878.38
2022-11-09T05:59:41.805Z,97880.09
2022-11-09T06:02:09.226Z,97876.25
2022-11-09T06:04:36.433Z,97876.97
2022-11-09T06:07:03.974Z,97878.31
2022-11-09T06:09:33.998Z,97887.25
2022-11-09T06:12:04.049Z,97889.28
2022-11-09T06:14:31.175Z,97889.28
2022-11-09T06:16:58.258Z,97888.22
2022-11-09T06:19:25.639Z,97884.41
2022-11-09T06:21:52.631Z,97889.56
2022-11-09T06:24:19.787Z,97886.94
2022-11-09T06:26:47.017Z,97892.66
2022-11-09T06:29:14.063Z,97892.28
2022-11-09T06:31:41.011Z,97888.38
2022-11-09T06:34:14.831Z,97895.69
2022-11-09T06:36:41.969Z,97883.09
2022-11-09T06:39:09.327Z,97891.22
2022-11-09T06:41:36.728Z,97890.25
2022-11-09T06:44:05.686Z,97886.03
2022-11-09T06:46:35.037Z,97889.84
2022-11-09T06:49:03.029Z,97889.09
2022-11-09T06:51:30.282Z,97889.78
2022-11-09T06:53:57.377Z,97889.63
2022-11-09T06:56:24.354Z,97895.44
2022-11-09T06:58:51.259Z,97889.66
2022-11-09T07:01:20.313Z,97876.44
2022-11-09T07:03:47.303Z,97885.00
2022-11-09T07:06:16.308Z,97879.16
2022-11-09T07:08:43.648Z,97884.31
2022-11-09T07:11:13.885Z,97884.63
2022-11-09T07:13:40.891Z,97876.91
2022-11-09T07:16:08.363Z,97870.25
2022-11-09T07:18:35.417Z,97871.13
2022-11-09T07:21:11.430Z,97869.50
2022-11-09T07:23:41.415Z,97876.34
2022-11-09T07:26:11.582Z,97873.97
2022-11-09T07:28:38.763Z,97865.53
2022-11-09T07:31:05.881Z,97873.47
2022-11-09T07:33:33.623Z,97858.03
2022-11-09T07:36:01.895Z,97866.38
2022-11-09T07:38:30.904Z,97862.94
2022-11-09T07:41:01.898Z,97865.16
2022-11-09T07:43:30.124Z,97856.25
2022-11-09T07:46:00.042Z,97860.69
2022-11-09T07:48:27.013Z,97864.75
2022-11-09T07:50:54.221Z,97864.31
2022-11-09T07:53:21.944Z,97865.84
2022-11-09T07:56:00.201Z,97867.34
2022-11-09T07:58:28.141Z,97858.00
2022-11-09T08:00:55.707Z,97864.25
2022-11-09T08:03:24.544Z,97858.31
2022-11-09T08:05:51.789Z,97861.09
2022-11-09T08:08:19.041Z,97854.91
2022-11-09T08:10:51.686Z,97862.00
2022-11-09T08:13:19.965Z,97854.16
2022-11-09T08:15:47.989Z,97860.81
2022-11-09T08:18:16.594Z,97862.56
2022-11-09T08:20:44.439Z,97852.78
2022-11-09T08:23:15.112Z,97857.19
2022-11-09T08:25:42.579Z,97851.75
2022-11-09T08:28:14.460Z,97858.03
2022-11-09T08:30:42.831Z,97861.06
2022-11-09T08:33:10.421Z,97857.53
2022-11-09T08:35:37.531Z,97857.34
2022-11-09T08:38:06.117Z,97859.13
2022-11-09T08:40:34.164Z,97860.19
2022-11-09T08:43:08.131Z,97858.97
2022-11-09T08:45:37.175Z,97846.88
2022-11-09T08:48:04.765Z,97838.88
2022-11-09T08:50:33.220Z,97840.88
2022-11-09T08:53:01.593Z,97845.97
2022-11-09T08:55:29.337Z,97833.09
2022-11-09T08:57:57.194Z,97837.97
2022-11-09T09:00:24.381Z,97839.97
2022-11-09T09:02:51.346Z,97841.97
2022-11-09T09:05:18.721Z,97844.19
2022-11-09T09:07:46.163Z,97838.25
2022-11-09T09:10:13.417Z,97838.91
2022-11-09T09:12:40.629Z,97837.97
2022-11-09T09:15:08.015Z,97834.63
2022-11-09T09:17:36.005Z,97825.38
2022-11-09T09:20:04.345Z,97825.09
2022-11-09T09:22:33.708Z,97825.41
2022-11-09T09:25:01.070Z,97827.75
2022-11-09T09:27:29.728Z,97828.09
2022-11-09T09:29:57.660Z,97826.44
2022-11-09T09:32:24.796Z,97827.44
2022-11-09T09:34:51.845Z,97820.63
2022-11-09T09:37:19.424Z,97819.81
2022-11-09T09:39:46.599Z,97819.63
2022-11-09T09:42:43.651Z,97814.78
2022-11-09T09:45:28.655Z,97804.16
2022-11-09T09:48:14.570Z,97799.50
2022-11-09T09:50:52.673Z,97805.97
2022-11-09T09:53:42.364Z,97797.16
2022-11-09T09:56:29.344Z,97798.16
2022-11-09T09:59:21.448Z,97791.16
2022-11-09T10:01:49.665Z,97781.19
2022-11-09T10:04:23.772Z,97784.13
2022-11-09T10:07:10.599Z,97788.81
2022-11-09T10:09:52.809Z,97785.13
2022-11-09T10:12:35.033Z,97791.50
2022-11-09T10:15:13.960Z,97784.50
2022-11-09T10:18:01.165Z,97789.81
2022-11-09T10:20:36.708Z,97788.16
2022-11-09T10:23:28.384Z,97780.47
2022-11-09T10:26:30.615Z,97774.50
2022-11-09T10:29:15.572Z,97772.84
2022-11-09T10:31:45.839Z,97777.34
2022-11-09T10:34:36.807Z,97773.16
2022-11-09T10:37:17.500Z,97767.84
2022-11-09T10:39:51.749Z,97766.53
2022-11-09T10:42:18.651Z,97759.72
2022-11-09T10:44:49.128Z,97764.41
2022-11-09T10:47:18.268Z,97770.06
2022-11-09T10:49:46.351Z,97765.56
2022-11-09T10:52:46.205Z,97760.75
2022-11-09T10:55:25.212Z,97769.75
2022-11-09T10:58:04.570Z,97764.44
2022-11-09T11:00:32.402Z,97766.28
2022-11-09T11:03:16.238Z,97768.94
2022-11-09T11:05:43.201Z,97763.09
2022-11-09T11:08:32.837Z,97759.91
2022-11-09T11:11:33.897Z,97768.75
2022-11-09T11:14:32.205Z,97756.97
2022-11-09T11:16:59.620Z,97749.66
2022-11-09T11:19:34.826Z,97751.16
2022-11-09T11:22:20.158Z,97745.31
2022-11-09T11:24:54.821Z,97746.66
2022-11-09T11:27:36.517Z,97748.31
2022-11-09T11:30:16.277Z,97729.34
2022-11-09T11:32:49.911Z,97738.66
2022-11-09T11:35:25.161Z,97741.66
2022-11-09T11:38:30.247Z,97732.50
2022-11-09T11:41:21.348Z,97727.50
2022-11-09T11:44:13.350Z,97723.28
2022-11-09T11:47:02.315Z,97729.56
2022-11-09T11:49:32.243Z,97726.22
2022-11-09T11:52:11.330Z,97719.22
2022-11-09T11:54:50.745Z,97709.88
2022-11-09T11:57:43.334Z,97709.53
2022-11-09T12:00:14.097Z,97705.50
2022-11-09T12:03:02.049Z,97704.13
2022-11-09T12:05:52.722Z,97713.09
2022-11-09T12:08:29.091Z,97716.13
2022-11-09T12:11:14.329Z,97708.00
2022-11-09T12:13:56.055Z,97702.69
2022-11-09T12:16:46.348Z,97713.44
2022-11-09T12:19:52.752Z,97705.47
2022-11-09T12:22:45.900Z,97699.84
2022-11-09T12:25:37.132Z,97708.50
2022-11-09T12:28:24.469Z,97694.06
2022-11-09T12:31:00.368Z,97701.06
2022-11-09T12:34:02.813Z,97690.44
2022-11-09T12:36:46.213Z,97690.63
2022-11-09T12:39:42.136Z,97690.84
2022-11-09T12:42:42.661Z,97692.28
2022-11-09T12:45:27.590Z,97690.94
2022-11-09T12:47:58.237Z,97694.94
2022-11-09T12:50:27.105Z,97692.56
2022-11-09T12:52:54.351Z,97690.59
2022-11-09T12:56:02.399Z,97689.44
2022-11-09T12:58:32.392Z,97692.63
2022-11-09T13:01:31.982Z,97689.00
2022-11-09T13:04:04.276Z,97692.00
2022-11-09T13:06:34.078Z,97696.50
2022-11-09T13:09:03.726Z,97694.00
2022-11-09T13:11:40.355Z,97697.66
2022-11-09T13:14:22.328Z,97699.19
2022-11-09T13:16:50.653Z,97700.69
2022-11-09T13:19:36.120Z,97693.72
2022-11-09T13:22:24.032Z,97689.75
2022-11-09T13:24:55.831Z,97693.75
2022-11-09T13:27:41.673Z,97692.78
2022-11-09T13:30:43.647Z,97697.75
2022-11-09T13:33:22.569Z,97692.44
2022-11-09T13:35:49.660Z,97695.78
2022-11-09T13:38:21.645Z,97698.44
2022-11-09T13:40:53.191Z,97693.78
2022-11-09T13:43:29.124Z,97697.47
2022-11-09T13:46:05.677Z,97700.97
2022-11-09T13:48:54.658Z,97708.44
2022-11-09T13:51:38.135Z,97706.72
2022-11-09T13:54:32.753Z,97710.53
2022-11-09T13:57:07.023Z,97703.75
2022-11-09T13:59:49.113Z,97710.72
2022-11-09T14:02:23.339Z,97706.72
2022-11-09T14:04:50.497Z,97707.38
2022-11-09T14:07:26.648Z,97702.06
2022-11-09T14:10:32.152Z,97707.34
2022-11-09T14:13:36.732Z,97711.97
2022-11-09T14:16:33.109Z,97713.56
2022-11-09T14:19:34.148Z,97715.50
2022-11-09T14:22:01.389Z,97707.56
2022-11-09T14:24:33.232Z,97714.16
2022-11-09T14:27:09.127Z,97710.13
2022-11-09T14:29:59.695Z,97713.50
2022-11-09T14:32:29.325Z,97717.09
2022-11-09T14:35:22.625Z,97718.63
2022-11-09T14:37:51.565Z,97721.53
2022-11-09T14:40:24.000Z,97720.78
2022-11-09T14:43:13.189Z,97719.34
2022-11-09T14:45:52.149Z,97735.44
2022-11-09T14:48:21.269Z,97723.31
2022-11-09T14:50:50.507Z,97725.38
2022-11-09T14:53:31.770Z,97732.66
2022-11-09T14:56:03.739Z,97732.47
2022-11-09T14:58:33.831Z,97737.56
2022-11-09T15:01:24.269Z,97729.25
2022-11-09T15:04:11.603Z,97731.56
2022-11-09T15:06:51.240Z,97742.31
2022-11-09T15:09:24.434Z,97738.41
2022-11-09T15:11:52.612Z,97739.41
2022-11-09T15:14:30.864Z,97747.50
2022-11-09T15:17:27.707Z,97747.81
2022-11-09T15:20:01.252Z,97747.25
2022-11-09T15:22:40.742Z,97745.41
2022-11-09T15:25:26.982Z,97749.72
2022-11-09T15:28:14.081Z,97758.88
2022-11-09T15:31:07.594Z,97756.09
2022-11-09T15:33:45.037Z,97754.69
2022-11-09T15:36:32.110Z,97762.41
2022-11-09T15:39:12.908Z,97759.25
2022-11-09T15:41:40.293Z,97756.53
2022-11-09T15:44:08.096Z,97761.38
2022-11-09T15:46:46.045Z,97765.22
2022-11-09T15:49:25.757Z,97761.72
2022-11-09T15:52:01.012Z,97770.91
2022-11-09T15:54:28.154Z,97775.53
2022-11-09T15:56:55.355Z,97776.06
2022-11-09T15:59:25.929Z,97779.94
2022-11-09T16:01:53.457Z,97783.00
2022-11-09T16:04:20.583Z,97780.75
2022-11-09T16:06:47.796Z,97784.59
2022-11-09T16:09:16.021Z,97787.75
2022-11-09T16:11:43.239Z,97781.16
2022-11-09T16:14:10.428Z,97789.38
2022-11-09T16:16:37.674Z,97789.78
2022-11-09T16:19:04.921Z,97794.47
2022-11-09T16:21:32.061Z,97786.13
2022-11-09T16:23:59.387Z,97793.53
2022-11-09T16:26:29.445Z,97795.47
2022-11-09T16:28:56.561Z,97797.56
2022-11-09T16:31:50.280Z,97796.66
2022-11-09T16:34:12.068Z,97803.34
2022-11-09T16:36:47.379Z,97804.41
2022-11-09T16:39:27.201Z,97810.41
2022-11-09T16:42:32.242Z,97806.34
2022-11-09T16:45:40.304Z,97811.53
2022-11-09T16:48:29.578Z,97811.53
2022-11-09T16:50:57.221Z,97812.00
2022-11-09T16:53:27.166Z,97812.00
2022-11-09T16:55:55.165Z,97817.38
2022-11-09T16:58:23.326Z,97817.84
2022-11-09T17:03:40.300Z,97808.41
2022-11-09T17:06:11.400Z,97813.41
2022-11-09T17:08:39.807Z,97813.41
2022-11-09T17:11:12.570Z,97811.38
2022-11-09T17:13:40.336Z,97808.91
2022-11-09T17:16:12.814Z,97811.84
2022-11-09T17:18:43.187Z,97812.00
2022-11-09T17:21:12.986Z,97817.94
2022-11-09T17:23:45.159Z,97821.53
2022-11-09T17:26:13.109Z,97822.13
2022-11-09T17:28:44.158Z,97819.84
2022-11-09T17:31:23.713Z,97819.34
2022-11-09T17:33:51.038Z,97823.91
2022-11-09T17:36:35.044Z,97821.38
2022-11-09T17:39:06.882Z,97823.91
2022-11-09T17:41:35.604Z,97820.09
2022-11-09T17:44:06.580Z,97818.75
2022-11-09T17:46:33.835Z,97818.41
2022-11-09T17:49:05.678Z,97825.06
2022-11-09T17:51:35.680Z,97818.84
2022-11-09T17:54:04.228Z,97820.97
2022-11-09T17:56:32.501Z,97815.50
2022-11-09T17:58:59.945Z,97820.88
2022-11-09T18:01:27.426Z,97820.16
2022-11-09T18:03:54.585Z,97818.34
2022-11-09T18:06:23.616Z,97816.69
2022-11-09T18:09:16.459Z,97815.25
2022-11-09T18:11:38.694Z,97820.94
2022-11-09T18:14:05.853Z,97824.53
2022-11-09T18:16:32.935Z,97830.84
2022-11-09T18:19:02.057Z,97837.63
2022-11-09T18:21:29.666Z,97830.72
2022-11-09T18:23:57.058Z,97834.97
2022-11-09T18:26:24.089Z,97837.31
2022-11-09T18:28:52.285Z,97843.22
2022-11-09T18:31:19.754Z,97842.31
2022-11-09T18:33:46.902Z,97841.16
2022-11-09T18:36:16.494Z,97850.22
2022-11-09T18:38:44.653Z,97845.91
2022-11-09T18:41:15.096Z,97846.31
2022-11-09T18:43:42.443Z,97836.81
2022-11-09T18:46:12.431Z,97846.06
2022-11-09T18:48:39.577Z,97837.09
2022-11-09T18:51:08.749Z,97836.94
2022-11-09T18:53:41.233Z,97842.50
2022-11-09T18:56:24.722Z,97840.50
2022-11-09T18:58:53.729Z,97837.97
2022-11-09T19:01:27.355Z,97836.81
2022-11-09T19:03:59.271Z,97841.34
2022-11-09T19:06:27.662Z,97839.44
2022-11-09T19:09:14.143Z,97848.25
2022-11-09T19:11:41.385Z,97839.22
2022-11-09T19:14:10.690Z,97843.28
2022-11-09T19:16:38.132Z,97840.88
2022-11-09T19:19:05.212Z,97846.97
2022-11-09T19:21:39.152Z,97838.16
2022-11-09T19:24:07.128Z,97849.00
2022-11-09T19:26:35.446Z,97849.69
2022-11-09T19:29:02.934Z,97840.78
2022-11-09T19:31:30.703Z,97850.13
2022-11-09T19:33:58.407Z,97834.00
2022-11-09T19:36:30.983Z,97845.75
2022-11-09T19:38:58.644Z,97847.19
2022-11-09T19:41:26.235Z,97843.63
2022-11-09T19:43:56.190Z,97841.97
2022-11-09T19:46:23.365Z,97855.41
2022-11-09T19:48:54.136Z,97851.19
2022-11-09T19:51:21.712Z,97846.41
2022-11-09T19:53:55.734Z,97850.88
2022-11-09T19:56:38.775Z,97852.88
2022-11-09T19:59:07.305Z,97849.50
2022-11-09T20:01:40.870Z,97851.19
2022-11-09T20:04:55.235Z,97858.53
2022-11-09T20:07:23.942Z,97848.28
2022-11-09T20:09:52.740Z,97855.63
2022-11-09T20:12:44.335Z,97854.34
2022-11-09T20:15:11.711Z,97848.88
2022-11-09T20:17:40.723Z,97857.47
2022-11-09T20:26:54.088Z,97856.34
2022-11-09T20:29:21.758Z,97858.31
2022-11-09T20:32:12.022Z,97851.25
2022-11-09T20:34:47.723Z,97852.47
2022-11-09T20:37:21.250Z,97852.59
2022-11-09T20:39:51.677Z,97850.06
2022-11-09T20:42:23.620Z,97849.88
2022-11-09T20:44:56.953Z,97846.97
2022-11-09T20:47:49.093Z,97840.47
2022-11-09T20:50:11.954Z,97843.00
2022-11-09T20:53:06.908Z,97842.47
2022-11-09T20:58:15.991Z,97836.59
2022-11-09T21:00:46.512Z,97842.56
2022-11-09T21:03:14.069Z,97842.38
2022-11-09T21:05:40.988Z,97845.47
2022-11-09T21:08:08.026Z,97846.34
2022-11-09T21:10:35.700Z,97833.97
2022-11-09T21:13:03.257Z,97842.78
2022-11-09T21:15:30.682Z,97849.59
2022-11-09T21:17:57.610Z,97855.09
2022-11-09T21:20:24.509Z,97844.94
2022-11-09T21:23:12.077Z,97851.97
2022-11-09T21:26:02.259Z,97841.88
2022-11-09T21:28:48.014Z,97850.50
2022-11-09T21:31:15.222Z,97847.75
2022-11-09T21:33:42.187Z,97834.84
2022-11-09T21:36:11.269Z,97833.38
2022-11-09T21:38:39.105Z,97836.00
2022-11-09T21:41:27.190Z,97843.50
2022-11-09T21:43:55.438Z,97840.34
2022-11-09T21:46:23.859Z,97840.53
2022-11-09T21:48:51.253Z,97844.91
2022-11-09T21:51:18.148Z,97832.16
2022-11-09T21:53:45.098Z,97840.06
2022-11-09T21:56:13.138Z,97842.78
2022-11-09T21:58:40.058Z,97841.97
2022-11-09T22:01:11.109Z,97842.47
2022-11-09T22:03:39.890Z,97844.22
2022-11-09T22:06:07.232Z,97845.25
2022-11-09T22:08:34.217Z,97846.75
2022-11-09T22:11:10.629Z,97856.47
2022-11-09T22:13:56.977Z,97848.72
2022-11-09T22:16:25.658Z,97844.81
2022-11-09T22:19:11.655Z,97852.56
2022-11-09T22:21:39.068Z,97851.81
2022-11-09T22:24:06.475Z,97852.94
2022-11-09T22:26:33.509Z,97854.25
2022-11-09T22:29:00.549Z,97851.34
2022-11-09T22:31:28.375Z,97853.31
2022-11-09T22:33:55.470Z,97847.44
2022-11-09T22:36:23.938Z,97841.56
2022-11-09T22:38:51.421Z,97839.91
2022-11-09T22:41:18.451Z,97846.53
2022-11-09T22:43:45.662Z,97840.72
2022-11-09T22:46:15.164Z,97846.25
2022-11-09T22:48:43.819Z,97843.63
2022-11-09T22:51:15.989Z,97843.44
2022-11-09T22:53:43.259Z,97848.69
2022-11-09T22:56:11.257Z,97844.59
2022-11-09T22:58:37.980Z,97840.19
2022-11-09T23:01:09.683Z,97843.06
2022-11-09T23:03:36.992Z,97850.50
2022-11-09T23:06:10.467Z,97847.53
2022-11-09T23:08:38.393Z,97850.16
2022-11-09T23:11:16.258Z,97854.44
2022-11-09T23:13:43.714Z,97855.38
2022-11-09T23:16:12.094Z,97842.78
2022-11-09T23:18:54.865Z,97843.50
2022-11-09T23:21:28.376Z,97838.41
2022-11-09T23:23:57.828Z,97848.94
2022-11-09T23:26:25.802Z,97842.41
2022-11-09T23:28:52.635Z,97844.28
2022-11-09T23:31:24.579Z,97841.84
2022-11-09T23:33:57.283Z,97836.53
2022-11-09T23:36:26.024Z,97833.19
2022-11-09T23:38:53.592Z,97842.03
2022-11-09T23:41:21.384Z,97837.00
2022-11-09T23:43:49.932Z,97838.75
2022-11-09T23:46:18.252Z,97842.88
2022-11-09T23:48:45.419Z,97844.91
2022-11-09T23:51:12.758Z,97838.22
2022-11-09T23:53:39.837Z,97845.09
2022-11-09T23:56:09.937Z,97847.72
2022-11-09T23:58:37.421Z,97844.56
